createdAt,value
2019-03-05T00:00:02.128Z,49.98
2019-03-05T00:01:02.125Z,49.98
2019-03-05T00:02:02.141Z,49.98
2019-03-05T00:03:02.097Z,49.98
2019-03-05T00:04:02.088Z,49.98
2019-03-05T00:05:02.073Z,50.08
2019-03-05T00:06:02.062Z,50.08
2019-03-05T00:07:02.054Z,50.08
2019-03-05T00:08:02.067Z,50.18
2019-03-05T00:09:02.033Z,50.18
2019-03-05T00:10:02.024Z,50.08
2019-03-05T00:11:02.035Z,50.18
2019-03-05T00:12:02.004Z,50.28
2019-03-05T00:13:01.991Z,50.28
2019-03-05T00:14:01.994Z,50.28
2019-03-05T00:15:01.967Z,50.18
2019-03-05T00:16:01.962Z,50.18
2019-03-05T00:17:01.949Z,50.28
2019-03-05T00:18:02.158Z,50.28
2019-03-05T00:19:01.933Z,50.18
2019-03-05T00:20:01.922Z,50.28
2019-03-05T00:21:01.904Z,50.28
2019-03-05T00:22:01.893Z,50.38
2019-03-05T00:23:01.884Z,50.38
2019-03-05T00:24:01.890Z,50.28
2019-03-05T00:25:01.862Z,50.38
2019-03-05T00:26:01.849Z,50.38
2019-03-05T00:27:01.844Z,50.38
2019-03-05T00:28:01.827Z,50.38
2019-03-05T00:29:01.841Z,50.28
2019-03-05T00:30:01.836Z,50.38
2019-03-05T00:31:01.805Z,50.18
2019-03-05T00:32:01.782Z,50.08
2019-03-05T00:33:01.771Z,50.28
2019-03-05T00:34:01.761Z,50.28
2019-03-05T00:35:01.755Z,50.38
2019-03-05T00:36:01.775Z,50.38
2019-03-05T00:37:01.736Z,50.28
2019-03-05T00:38:01.725Z,50.28
2019-03-05T00:39:01.712Z,50.38
2019-03-05T00:40:01.700Z,50.28
2019-03-05T00:41:01.692Z,50.38
2019-03-05T00:42:01.699Z,50.28
2019-03-05T00:43:01.662Z,50.38
2019-03-05T00:44:01.657Z,50.38
2019-03-05T00:45:01.671Z,50.28
2019-03-05T00:46:01.651Z,50.38
2019-03-05T00:47:01.622Z,50.28
2019-03-05T00:48:01.650Z,50.38
2019-03-05T00:49:01.599Z,50.38
2019-03-05T00:50:01.590Z,50.38
2019-03-05T00:51:01.582Z,50.38
2019-03-05T00:52:01.578Z,50.38
2019-03-05T00:53:01.563Z,50.28
2019-03-05T00:54:01.589Z,50.38
2019-03-05T00:55:01.538Z,50.38
2019-03-05T00:56:01.531Z,50.28
2019-03-05T00:57:01.518Z,50.38
2019-03-05T00:58:01.509Z,50.28
2019-03-05T00:59:01.503Z,50.48
2019-03-05T01:00:01.772Z,50.38
2019-03-05T01:01:01.469Z,50.48
2019-03-05T01:02:01.460Z,50.38
2019-03-05T01:03:01.448Z,50.38
2019-03-05T01:04:01.441Z,50.28
2019-03-05T01:05:01.433Z,50.18
2019-03-05T01:06:01.454Z,50.28
2019-03-05T01:07:01.420Z,50.28
2019-03-05T01:08:01.404Z,50.28
2019-03-05T01:09:01.397Z,50.38
2019-03-05T01:10:01.377Z,50.28
2019-03-05T01:11:01.378Z,50.28
2019-03-05T01:12:01.378Z,50.28
2019-03-05T01:13:01.346Z,50.28
2019-03-05T01:14:01.330Z,50.28
2019-03-05T01:15:01.321Z,50.18
2019-03-05T01:16:01.309Z,50.28
2019-03-05T01:17:01.298Z,50.28
2019-03-05T01:18:01.516Z,50.28
2019-03-05T01:19:01.275Z,50.28
2019-03-05T01:20:01.264Z,50.18
2019-03-05T01:21:01.259Z,50.28
2019-03-05T01:22:01.252Z,50.28
2019-03-05T01:23:01.236Z,50.28
2019-03-05T01:24:01.243Z,50.28
2019-03-05T01:25:01.216Z,50.08
2019-03-05T01:26:01.225Z,50.18
2019-03-05T01:27:01.195Z,50.28
2019-03-05T01:28:01.182Z,50.28
2019-03-05T01:29:01.165Z,50.38
2019-03-05T01:30:01.181Z,50.38
2019-03-05T01:31:01.152Z,50.28
2019-03-05T01:32:01.143Z,50.28
2019-03-05T01:33:01.157Z,50.28
2019-03-05T01:34:01.118Z,50.28
2019-03-05T01:35:01.112Z,50.18
2019-03-05T01:36:01.093Z,50.18
2019-03-05T01:37:01.090Z,50.18
2019-03-05T01:38:01.076Z,50.18
2019-03-05T01:39:01.088Z,50.18
2019-03-05T01:40:01.050Z,50.18
2019-03-05T01:41:01.043Z,50.18
2019-03-05T01:42:01.026Z,50.18
2019-03-05T01:43:01.029Z,50.18
2019-03-05T01:44:01.015Z,50.18
2019-03-05T01:45:01.020Z,50.18
2019-03-05T01:46:00.988Z,50.18
2019-03-05T01:47:00.979Z,50.18
2019-03-05T01:48:00.965Z,50.08
2019-03-05T01:49:00.958Z,50.18
2019-03-05T01:50:00.971Z,50.18
2019-03-05T01:51:00.932Z,50.18
2019-03-05T01:52:00.919Z,49.98
2019-03-05T01:53:00.910Z,50.28
2019-03-05T01:54:00.896Z,50.08
2019-03-05T01:55:00.911Z,50.18
2019-03-05T01:56:00.908Z,50.18
2019-03-05T01:57:00.870Z,50.18
2019-03-05T01:58:00.857Z,50.08
2019-03-05T01:59:00.851Z,50.28
2019-03-05T02:00:00.835Z,50.28
2019-03-05T02:01:00.826Z,50.28
2019-03-05T02:02:00.843Z,50.28
2019-03-05T02:03:00.805Z,50.18
2019-03-05T02:04:00.791Z,50.28
2019-03-05T02:05:00.798Z,50.18
2019-03-05T02:06:00.772Z,50.38
2019-03-05T02:07:00.758Z,50.28
2019-03-05T02:08:00.770Z,50.28
2019-03-05T02:09:00.739Z,50.28
2019-03-05T02:10:00.725Z,50.28
2019-03-05T02:11:00.715Z,50.28
2019-03-05T02:12:00.710Z,50.38
2019-03-05T02:13:00.724Z,50.38
2019-03-05T02:14:00.683Z,50.38
2019-03-05T02:15:00.679Z,50.38
2019-03-05T02:16:00.666Z,50.38
2019-03-05T02:17:00.660Z,50.38
2019-03-05T02:18:00.647Z,50.38
2019-03-05T02:19:00.653Z,50.38
2019-03-05T02:20:00.623Z,50.38
2019-03-05T02:21:00.607Z,50.48
2019-03-05T02:22:00.604Z,50.38
2019-03-05T02:23:00.628Z,50.28
2019-03-05T02:24:00.573Z,50.28
2019-03-05T02:25:00.571Z,50.38
2019-03-05T02:26:00.553Z,50.38
2019-03-05T02:27:00.558Z,50.38
2019-03-05T02:28:00.538Z,50.48
2019-03-05T02:29:00.544Z,50.48
2019-03-05T02:30:00.765Z,50.38
2019-03-05T02:31:00.537Z,50.38
2019-03-05T02:32:00.491Z,50.18
2019-03-05T02:33:00.483Z,50.28
2019-03-05T02:34:00.483Z,50.28
2019-03-05T02:35:00.605Z,50.48
2019-03-05T02:36:00.448Z,50.48
2019-03-05T02:37:00.458Z,50.48
2019-03-05T02:38:00.454Z,50.48
2019-03-05T02:39:00.427Z,50.48
2019-03-05T02:40:00.634Z,50.48
2019-03-05T02:41:00.397Z,50.38
2019-03-05T02:42:00.414Z,50.28
2019-03-05T02:43:00.410Z,50.38
2019-03-05T02:44:00.364Z,50.38
2019-03-05T02:45:00.635Z,50.38
2019-03-05T02:46:00.346Z,50.38
2019-03-05T02:47:00.333Z,50.38
2019-03-05T02:48:00.340Z,50.38
2019-03-05T02:49:00.314Z,50.38
2019-03-05T02:50:00.675Z,50.38
2019-03-05T02:51:00.313Z,50.48
2019-03-05T02:52:00.276Z,50.38
2019-03-05T02:53:00.569Z,50.38
2019-03-05T02:54:00.261Z,50.48
2019-03-05T02:55:00.249Z,50.48
2019-03-05T02:56:00.240Z,50.48
2019-03-05T02:57:00.245Z,50.48
2019-03-05T02:58:00.219Z,50.38
2019-03-05T02:59:00.204Z,50.38
2019-03-05T03:00:00.505Z,50.38
2019-03-05T03:01:00.204Z,50.28
2019-03-05T03:02:00.174Z,50.48
2019-03-05T03:03:00.160Z,50.48
2019-03-05T03:04:00.150Z,50.48
2019-03-05T03:05:00.452Z,50.48
2019-03-05T03:06:00.356Z,50.48
2019-03-05T03:07:00.112Z,50.58
2019-03-05T03:08:00.109Z,50.58
2019-03-05T03:09:00.093Z,50.58
2019-03-05T03:10:00.084Z,50.58
2019-03-05T03:11:00.074Z,50.58
2019-03-05T03:12:00.287Z,50.48
2019-03-05T03:13:00.051Z,50.58
2019-03-05T03:14:00.046Z,50.48
2019-03-05T03:15:00.033Z,50.58
2019-03-05T03:16:00.021Z,50.68
2019-03-05T03:17:00.021Z,50.68
2019-03-05T03:18:00.030Z,50.58
2019-03-05T03:18:59.986Z,50.58
2019-03-05T03:19:59.979Z,50.58
2019-03-05T03:20:59.979Z,50.58
2019-03-05T03:21:59.952Z,50.58
2019-03-05T03:22:59.945Z,50.58
2019-03-05T03:23:59.986Z,50.68
2019-03-05T03:24:59.926Z,50.78
2019-03-05T03:25:59.915Z,50.78
2019-03-05T03:26:59.901Z,50.78
2019-03-05T03:27:59.890Z,50.78
2019-03-05T03:28:59.886Z,50.78
2019-03-05T03:29:59.893Z,50.78
2019-03-05T03:30:59.865Z,50.68
2019-03-05T03:31:59.850Z,50.78
2019-03-05T03:32:59.846Z,50.68
2019-03-05T03:33:59.827Z,50.68
2019-03-05T03:34:59.838Z,50.78
2019-03-05T03:35:59.842Z,50.58
2019-03-05T03:36:59.797Z,50.58
2019-03-05T03:37:59.792Z,50.58
2019-03-05T03:38:59.770Z,50.68
2019-03-05T03:39:59.762Z,50.68
2019-03-05T03:40:59.750Z,50.68
2019-03-05T03:41:59.770Z,50.68
2019-03-05T03:42:59.728Z,50.78
2019-03-05T03:43:59.721Z,50.78
2019-03-05T03:44:59.714Z,50.68
2019-03-05T03:45:59.702Z,50.68
2019-03-05T03:46:59.720Z,50.68
2019-03-05T03:47:59.676Z,50.78
2019-03-05T03:48:59.668Z,50.68
2019-03-05T03:49:59.655Z,50.68
2019-03-05T03:50:59.644Z,50.68
2019-03-05T03:51:59.639Z,50.78
2019-03-05T03:52:59.649Z,50.68
2019-03-05T03:53:59.622Z,50.78
2019-03-05T03:54:59.602Z,50.78
2019-03-05T03:55:59.598Z,50.68
2019-03-05T03:56:59.599Z,50.78
2019-03-05T03:57:59.581Z,50.68
2019-03-05T03:58:59.594Z,50.78
2019-03-05T03:59:59.554Z,50.78
2019-03-05T04:00:59.541Z,50.78
2019-03-05T04:01:59.528Z,50.78
2019-03-05T04:02:59.514Z,50.78
2019-03-05T04:03:59.552Z,50.89
2019-03-05T04:04:59.497Z,50.78
2019-03-05T04:05:59.508Z,50.68
2019-03-05T04:06:59.474Z,50.78
2019-03-05T04:07:59.461Z,50.78
2019-03-05T04:08:59.455Z,50.68
2019-03-05T04:09:59.478Z,50.68
2019-03-05T04:10:59.723Z,50.68
2019-03-05T04:11:59.418Z,50.68
2019-03-05T04:12:59.412Z,50.58
2019-03-05T04:13:59.887Z,50.68
2019-03-05T04:14:59.394Z,50.78
2019-03-05T04:15:59.384Z,50.78
2019-03-05T04:16:59.386Z,50.78
2019-03-05T04:17:59.361Z,50.68
2019-03-05T04:18:59.349Z,50.68
2019-03-05T04:19:59.352Z,50.58
2019-03-05T04:20:59.329Z,50.78
2019-03-05T04:21:59.334Z,50.68
2019-03-05T04:22:59.362Z,50.68
2019-03-05T04:23:59.293Z,50.68
2019-03-05T04:24:59.282Z,50.68
2019-03-05T04:25:59.275Z,50.78
2019-03-05T04:26:59.264Z,50.78
2019-03-05T04:27:59.247Z,50.68
2019-03-05T04:28:59.281Z,50.78
2019-03-05T04:29:59.227Z,50.78
2019-03-05T04:30:59.222Z,50.78
2019-03-05T04:31:59.213Z,50.78
2019-03-05T04:32:59.201Z,50.78
2019-03-05T04:33:59.207Z,50.78
2019-03-05T04:34:59.197Z,50.78
2019-03-05T04:35:59.163Z,50.89
2019-03-05T04:36:59.150Z,50.89
2019-03-05T04:37:59.161Z,50.89
2019-03-05T04:38:59.133Z,50.89
2019-03-05T04:39:59.122Z,50.98
2019-03-05T04:40:59.123Z,50.78
2019-03-05T04:41:59.126Z,50.78
2019-03-05T04:42:59.109Z,50.89
2019-03-05T04:43:59.085Z,50.78
2019-03-05T04:44:59.066Z,50.89
2019-03-05T04:45:59.056Z,50.89
2019-03-05T04:46:59.052Z,50.89
2019-03-05T04:47:59.070Z,50.98
2019-03-05T04:48:59.028Z,50.89
2019-03-05T04:49:59.011Z,50.89
2019-03-05T04:50:59.002Z,50.89
2019-03-05T04:51:58.995Z,50.89
2019-03-05T04:52:59.005Z,50.89
2019-03-05T04:53:58.997Z,50.89
2019-03-05T04:54:58.960Z,50.89
2019-03-05T04:55:58.986Z,50.78
2019-03-05T04:56:58.941Z,50.98
2019-03-05T04:57:58.934Z,50.98
2019-03-05T04:58:58.914Z,50.98
2019-03-05T04:59:58.904Z,50.89
2019-03-05T05:00:58.905Z,50.89
2019-03-05T05:01:58.912Z,50.89
2019-03-05T05:02:58.876Z,50.98
2019-03-05T05:03:58.864Z,50.89
2019-03-05T05:04:58.850Z,50.89
2019-03-05T05:05:58.855Z,50.78
2019-03-05T05:06:58.868Z,50.89
2019-03-05T05:07:58.818Z,50.98
2019-03-05T05:08:58.814Z,50.89
2019-03-05T05:09:58.800Z,50.89
2019-03-05T05:10:58.798Z,50.98
2019-03-05T05:11:58.784Z,50.89
2019-03-05T05:12:58.798Z,50.89
2019-03-05T05:13:58.760Z,50.89
2019-03-05T05:14:58.744Z,50.89
2019-03-05T05:15:58.747Z,50.98
2019-03-05T05:16:58.732Z,50.89
2019-03-05T05:17:58.717Z,50.89
2019-03-05T05:18:58.725Z,50.89
2019-03-05T05:19:58.698Z,50.89
2019-03-05T05:20:58.707Z,50.89
2019-03-05T05:21:58.672Z,50.89
2019-03-05T05:22:58.662Z,50.98
2019-03-05T05:23:58.675Z,50.98
2019-03-05T05:24:58.640Z,51.09
2019-03-05T05:25:58.635Z,50.89
2019-03-05T05:26:58.616Z,50.98
2019-03-05T05:27:58.608Z,50.98
2019-03-05T05:28:58.640Z,50.98
2019-03-05T05:29:58.586Z,50.89
2019-03-05T05:30:58.578Z,50.98
2019-03-05T05:31:58.601Z,51.09
2019-03-05T05:32:58.565Z,50.89
2019-03-05T05:33:58.548Z,50.98
2019-03-05T05:34:58.557Z,50.98
2019-03-05T05:35:58.548Z,50.98
2019-03-05T05:36:58.514Z,50.98
2019-03-05T05:37:58.512Z,51.09
2019-03-05T05:38:58.510Z,51.09
2019-03-05T05:39:58.500Z,51.09
2019-03-05T05:40:58.471Z,51.09
2019-03-05T05:41:58.458Z,50.89
2019-03-05T05:42:58.452Z,50.89
2019-03-05T05:43:58.436Z,50.98
2019-03-05T05:44:58.430Z,51.09
2019-03-05T05:45:58.437Z,50.98
2019-03-05T05:46:58.407Z,50.98
2019-03-05T05:47:58.390Z,51.09
2019-03-05T05:48:58.436Z,50.89
2019-03-05T05:49:58.375Z,50.98
2019-03-05T05:50:58.366Z,50.98
2019-03-05T05:51:58.355Z,50.89
2019-03-05T05:52:58.340Z,50.98
2019-03-05T05:53:58.326Z,50.89
2019-03-05T05:54:58.341Z,50.98
2019-03-05T05:55:58.318Z,50.98
2019-03-05T05:56:58.296Z,50.98
2019-03-05T05:57:58.286Z,50.98
2019-03-05T05:58:58.277Z,50.98
2019-03-05T05:59:58.273Z,51.09
2019-03-05T06:00:58.292Z,51.09
2019-03-05T06:01:58.255Z,50.98
2019-03-05T06:02:58.233Z,50.89
2019-03-05T06:03:58.220Z,50.98
2019-03-05T06:04:58.213Z,51.18
2019-03-05T06:05:58.200Z,51.09
2019-03-05T06:06:58.222Z,51.09
2019-03-05T06:07:58.177Z,51.18
2019-03-05T06:08:58.166Z,51.09
2019-03-05T06:09:58.163Z,51.09
2019-03-05T06:10:58.147Z,51.09
2019-03-05T06:11:58.148Z,51.09
2019-03-05T06:12:58.167Z,51.09
2019-03-05T06:13:58.120Z,51.09
2019-03-05T06:14:58.109Z,51.09
2019-03-05T06:15:58.104Z,50.98
2019-03-05T06:16:58.085Z,51.09
2019-03-05T06:17:58.100Z,51.09
2019-03-05T06:18:58.059Z,51.09
2019-03-05T06:19:58.049Z,51.18
2019-03-05T06:20:58.067Z,51.09
2019-03-05T06:21:58.053Z,51.18
2019-03-05T06:22:58.019Z,51.18
2019-03-05T06:23:58.005Z,51.18
2019-03-05T06:24:57.998Z,51.09
2019-03-05T06:25:58.023Z,51.09
2019-03-05T06:26:57.990Z,50.98
2019-03-05T06:27:57.971Z,50.98
2019-03-05T06:28:57.961Z,51.09
2019-03-05T06:29:57.946Z,51.18
2019-03-05T06:30:57.931Z,51.09
2019-03-05T06:31:57.946Z,51.18
2019-03-05T06:32:57.925Z,51.18
2019-03-05T06:33:57.902Z,51.09
2019-03-05T06:34:57.911Z,51.09
2019-03-05T06:35:57.880Z,51.18
2019-03-05T06:36:57.876Z,51.09
2019-03-05T06:37:57.909Z,51.18
2019-03-05T06:38:57.845Z,51.09
2019-03-05T06:39:57.839Z,51.09
2019-03-05T06:40:57.826Z,51.18
2019-03-05T06:41:57.813Z,51.18
2019-03-05T06:42:57.802Z,51.18
2019-03-05T06:43:57.830Z,51.18
2019-03-05T06:44:57.807Z,51.18
2019-03-05T06:45:57.781Z,51.18
2019-03-05T06:46:57.762Z,51.18
2019-03-05T06:47:57.752Z,51.18
2019-03-05T06:48:57.741Z,51.18
2019-03-05T06:49:57.761Z,51.09
2019-03-05T06:50:57.717Z,51.18
2019-03-05T06:51:57.706Z,51.18
2019-03-05T06:52:57.705Z,51.18
2019-03-05T06:53:57.693Z,51.18
2019-03-05T06:54:57.676Z,51.18
2019-03-05T06:55:57.703Z,51.09
2019-03-05T06:56:57.662Z,51.09
2019-03-05T06:57:57.653Z,51.18
2019-03-05T06:58:57.638Z,51.09
2019-03-05T06:59:57.625Z,51.18
2019-03-05T07:00:57.610Z,51.18
2019-03-05T07:01:57.826Z,51.18
2019-03-05T07:02:57.596Z,51.18
2019-03-05T07:03:57.578Z,51.18
2019-03-05T07:04:57.573Z,51.18
2019-03-05T07:05:57.563Z,51.18
2019-03-05T07:06:57.546Z,51.18
2019-03-05T07:07:57.574Z,51.18
2019-03-05T07:08:57.526Z,51.18
2019-03-05T07:09:57.516Z,51.18
2019-03-05T07:10:57.505Z,51.18
2019-03-05T07:11:57.496Z,51.09
2019-03-05T07:12:57.484Z,51.09
2019-03-05T07:13:57.514Z,51.09
2019-03-05T07:14:57.462Z,51.18
2019-03-05T07:15:57.449Z,51.18
2019-03-05T07:16:57.444Z,51.18
2019-03-05T07:17:57.427Z,51.09
2019-03-05T07:18:57.424Z,51.09
2019-03-05T07:19:58.384Z,51.18
2019-03-05T07:20:57.395Z,51.09
2019-03-05T07:21:57.385Z,51.09
2019-03-05T07:22:57.403Z,51.09
2019-03-05T07:23:57.408Z,51.09
2019-03-05T07:24:57.355Z,51.09
2019-03-05T07:25:57.342Z,51.09
2019-03-05T07:26:57.336Z,51.09
2019-03-05T07:27:57.325Z,51.09
2019-03-05T07:28:57.316Z,51.09
2019-03-05T07:29:57.331Z,51.09
2019-03-05T07:30:57.311Z,51.09
2019-03-05T07:31:57.281Z,51.18
2019-03-05T07:32:57.270Z,51.18
2019-03-05T07:33:57.265Z,50.98
2019-03-05T07:34:57.293Z,51.09
2019-03-05T07:35:57.244Z,51.29
2019-03-05T07:36:57.231Z,51.09
2019-03-05T07:37:57.217Z,51.09
2019-03-05T07:38:57.211Z,51.18
2019-03-05T07:39:57.199Z,51.18
2019-03-05T07:40:57.226Z,51.18
2019-03-05T07:41:57.203Z,51.09
2019-03-05T07:42:57.170Z,51.18
2019-03-05T07:43:57.159Z,51.09
2019-03-05T07:44:57.143Z,51.18
2019-03-05T07:45:57.134Z,51.18
2019-03-05T07:46:57.150Z,51.29
2019-03-05T07:47:57.115Z,51.29
2019-03-05T07:48:57.104Z,51.29
2019-03-05T07:49:57.095Z,51.18
2019-03-05T07:50:57.076Z,51.18
2019-03-05T07:51:57.099Z,51.18
2019-03-05T07:52:57.063Z,51.29
2019-03-05T07:53:57.091Z,51.29
2019-03-05T07:54:57.045Z,51.29
2019-03-05T07:55:57.029Z,51.29
2019-03-05T07:56:57.015Z,51.29
2019-03-05T07:57:57.008Z,51.29
2019-03-05T07:58:57.000Z,51.29
2019-03-05T07:59:57.031Z,51.39
2019-03-05T08:00:56.999Z,51.29
2019-03-05T08:01:56.967Z,51.29
2019-03-05T08:02:56.954Z,51.39
2019-03-05T08:03:56.947Z,51.39
2019-03-05T08:04:56.927Z,51.29
2019-03-05T08:05:56.948Z,51.29
2019-03-05T08:06:56.906Z,51.39
2019-03-05T08:07:56.899Z,51.49
2019-03-05T08:08:56.892Z,51.29
2019-03-05T08:09:56.896Z,51.29
2019-03-05T08:10:56.867Z,51.29
2019-03-05T08:11:56.858Z,51.29
2019-03-05T08:12:56.850Z,51.29
2019-03-05T08:13:56.833Z,51.29
2019-03-05T08:14:56.851Z,51.29
2019-03-05T08:16:02.423Z,51.29
2019-03-05T08:16:57.803Z,51.29
2019-03-05T08:17:56.886Z,51.29
2019-03-05T08:18:56.787Z,51.29
2019-03-05T08:19:56.797Z,51.29
2019-03-05T08:20:56.759Z,51.39
2019-03-05T08:21:56.758Z,51.39
2019-03-05T08:22:56.746Z,51.39
2019-03-05T08:23:56.786Z,51.39
2019-03-05T08:24:56.720Z,51.39
2019-03-05T08:25:56.704Z,51.29
2019-03-05T08:26:56.719Z,51.29
2019-03-05T08:27:56.685Z,51.39
2019-03-05T08:28:56.681Z,51.39
2019-03-05T08:29:56.691Z,51.39
2019-03-05T08:30:56.650Z,51.39
2019-03-05T08:31:56.645Z,51.39
2019-03-05T08:32:56.635Z,51.39
2019-03-05T08:33:56.619Z,51.39
2019-03-05T08:34:56.640Z,51.29
2019-03-05T08:35:56.623Z,51.18
2019-03-05T08:36:56.616Z,51.18
2019-03-05T08:37:56.577Z,51.39
2019-03-05T08:38:56.570Z,51.29
2019-03-05T08:39:56.552Z,51.29
2019-03-05T08:40:56.590Z,51.39
2019-03-05T08:41:56.536Z,51.29
2019-03-05T08:42:56.521Z,51.29
2019-03-05T08:43:56.531Z,51.39
2019-03-05T08:44:56.506Z,51.39
2019-03-05T08:45:56.495Z,51.39
2019-03-05T08:46:56.532Z,51.39
2019-03-05T08:47:56.468Z,51.29
2019-03-05T08:48:56.461Z,51.29
2019-03-05T08:49:56.455Z,51.39
2019-03-05T08:50:56.442Z,51.39
2019-03-05T08:51:56.467Z,51.29
2019-03-05T08:52:56.427Z,51.39
2019-03-05T08:53:56.403Z,51.39
2019-03-05T08:54:56.397Z,51.29
2019-03-05T08:55:56.382Z,51.29
2019-03-05T08:56:56.384Z,51.29
2019-03-05T08:57:56.382Z,51.29
2019-03-05T08:58:56.349Z,51.39
2019-03-05T08:59:56.358Z,51.29
2019-03-05T09:00:56.328Z,51.39
2019-03-05T09:01:56.357Z,51.29
2019-03-05T09:02:56.313Z,51.18
2019-03-05T09:03:56.304Z,51.29
2019-03-05T09:04:56.290Z,51.29
2019-03-05T09:05:56.275Z,51.29
2019-03-05T09:06:56.269Z,51.29
2019-03-05T09:07:56.283Z,51.39
2019-03-05T09:08:56.255Z,51.39
2019-03-05T09:09:56.237Z,51.39
2019-03-05T09:10:56.226Z,51.29
2019-03-05T09:11:56.243Z,51.49
2019-03-05T09:12:56.206Z,51.49
2019-03-05T09:13:56.195Z,51.39
2019-03-05T09:14:56.187Z,51.29
2019-03-05T09:15:56.173Z,51.18
2019-03-05T09:16:56.162Z,51.39
2019-03-05T09:17:56.194Z,51.49
2019-03-05T09:18:56.144Z,51.49
2019-03-05T09:19:56.129Z,51.49
2019-03-05T09:20:56.115Z,51.49
2019-03-05T09:21:56.111Z,51.49
2019-03-05T09:22:56.106Z,51.49
2019-03-05T09:23:56.112Z,51.89
2019-03-05T09:24:56.108Z,51.79
2019-03-05T09:25:56.072Z,51.99
2019-03-05T09:26:56.052Z,51.99
2019-03-05T09:27:56.043Z,52.39
2019-03-05T09:28:56.031Z,52.80
2019-03-05T09:29:56.027Z,52.69
2019-03-05T09:30:56.037Z,52.49
2019-03-05T09:31:56.000Z,52.39
2019-03-05T09:32:56.010Z,52.09
2019-03-05T09:33:55.979Z,51.89
2019-03-05T09:34:55.974Z,51.68
2019-03-05T09:35:55.955Z,51.79
2019-03-05T09:36:55.968Z,51.68
2019-03-05T09:37:55.936Z,51.59
2019-03-05T09:38:55.923Z,51.29
2019-03-05T09:39:55.921Z,51.29
2019-03-05T09:40:55.901Z,51.29
2019-03-05T09:41:55.931Z,51.18
2019-03-05T09:42:55.891Z,51.18
2019-03-05T09:43:55.895Z,51.18
2019-03-05T09:44:55.861Z,51.18
2019-03-05T09:45:55.862Z,51.09
2019-03-05T09:46:55.842Z,51.09
2019-03-05T09:47:55.834Z,51.09
2019-03-05T09:48:55.841Z,51.09
2019-03-05T09:49:55.811Z,51.18
2019-03-05T09:50:55.799Z,51.29
2019-03-05T09:51:55.791Z,51.59
2019-03-05T09:52:55.773Z,51.49
2019-03-05T09:53:55.933Z,51.49
2019-03-05T09:54:55.758Z,51.49
2019-03-05T09:55:55.764Z,51.39
2019-03-05T09:56:55.732Z,51.39
2019-03-05T09:58:07.039Z,51.39
2019-03-05T09:58:56.737Z,51.29
2019-03-05T09:59:55.744Z,51.29
2019-03-05T10:00:55.694Z,51.29
2019-03-05T10:01:55.684Z,51.39
2019-03-05T10:02:55.676Z,51.39
2019-03-05T10:03:55.675Z,51.39
2019-03-05T10:04:55.647Z,51.39
2019-03-05T10:05:55.677Z,51.39
2019-03-05T10:06:55.625Z,51.39
2019-03-05T10:07:55.616Z,51.49
2019-03-05T10:08:55.601Z,51.59
2019-03-05T10:09:55.597Z,51.49
2019-03-05T10:10:55.585Z,51.59
2019-03-05T10:11:56.846Z,51.59
2019-03-05T10:12:59.148Z,51.59
2019-03-05T10:13:55.552Z,51.49
2019-03-05T10:14:55.544Z,51.59
2019-03-05T10:15:55.526Z,51.59
2019-03-05T10:16:55.555Z,51.59
2019-03-05T10:17:55.513Z,51.59
2019-03-05T10:18:55.588Z,51.59
2019-03-05T10:19:55.484Z,51.79
2019-03-05T10:20:55.478Z,51.79
2019-03-05T10:21:55.469Z,51.86
2019-03-05T10:22:57.912Z,51.76
2019-03-05T10:23:55.451Z,51.76
2019-03-05T10:25:05.608Z,51.76
2019-03-05T10:25:56.424Z,51.97
2019-03-05T10:26:55.416Z,51.97
2019-03-05T10:27:55.408Z,51.97
2019-03-05T10:28:55.451Z,51.97
2019-03-05T10:29:55.378Z,51.76
2019-03-05T10:30:55.366Z,51.76
2019-03-05T10:31:55.358Z,51.66
2019-03-05T10:32:55.345Z,51.56
2019-03-05T10:33:55.334Z,51.56
2019-03-05T10:34:55.357Z,51.56
2019-03-05T10:35:55.320Z,51.46
2019-03-05T10:36:55.304Z,51.46
2019-03-05T10:37:55.299Z,51.46
2019-03-05T10:38:57.478Z,51.46
2019-03-05T10:39:55.412Z,51.56
2019-03-05T10:40:55.263Z,51.66
2019-03-05T10:41:55.258Z,51.86
2019-03-05T10:42:55.238Z,51.86
2019-03-05T10:43:55.230Z,51.97
2019-03-05T10:44:55.223Z,52.06
2019-03-05T10:45:55.227Z,51.97
2019-03-05T10:46:56.121Z,52.06
2019-03-05T10:47:55.216Z,52.06
2019-03-05T10:48:55.178Z,51.86
2019-03-05T10:49:55.173Z,51.97
2019-03-05T10:50:55.161Z,52.26
2019-03-05T10:51:55.161Z,52.26
2019-03-05T10:52:55.188Z,52.37
2019-03-05T10:53:55.124Z,52.37
2019-03-05T10:54:55.108Z,52.37
2019-03-05T10:55:55.102Z,52.37
2019-03-05T10:56:55.101Z,52.37
2019-03-05T10:57:55.090Z,52.37
2019-03-05T10:58:55.097Z,52.47
2019-03-05T10:59:55.062Z,52.47
2019-03-05T11:00:55.048Z,52.47
2019-03-05T11:01:55.060Z,52.47
2019-03-05T11:02:55.062Z,52.57
2019-03-05T11:03:55.013Z,52.57
2019-03-05T11:04:55.007Z,52.77
2019-03-05T11:05:54.989Z,52.87
2019-03-05T11:06:54.984Z,52.87
2019-03-05T11:07:54.979Z,52.77
2019-03-05T11:08:54.982Z,52.97
2019-03-05T11:09:54.952Z,53.27
2019-03-05T11:10:54.939Z,53.37
2019-03-05T11:11:54.925Z,53.27
2019-03-05T11:12:54.966Z,53.47
2019-03-05T11:13:54.911Z,52.67
2019-03-05T11:14:54.909Z,52.87
2019-03-05T11:15:54.888Z,53.17
2019-03-05T11:16:54.878Z,53.27
2019-03-05T11:17:54.873Z,53.27
2019-03-05T11:18:54.893Z,53.07
2019-03-05T11:19:54.841Z,53.07
2019-03-05T11:20:54.831Z,52.87
2019-03-05T11:21:54.820Z,52.87
2019-03-05T11:22:54.810Z,52.97
2019-03-05T11:23:54.802Z,52.97
2019-03-05T11:24:54.852Z,52.87
2019-03-05T11:25:54.775Z,52.67
2019-03-05T11:26:54.773Z,52.57
2019-03-05T11:27:54.760Z,52.57
2019-03-05T11:28:54.876Z,52.57
2019-03-05T11:29:54.745Z,52.57
2019-03-05T11:30:54.752Z,52.57
2019-03-05T11:31:54.713Z,52.57
2019-03-05T11:32:54.705Z,52.57
2019-03-05T11:33:54.694Z,52.57
2019-03-05T11:34:54.682Z,52.57
2019-03-05T11:35:54.675Z,52.47
2019-03-05T11:36:54.683Z,52.37
2019-03-05T11:37:54.669Z,52.37
2019-03-05T11:38:54.644Z,52.37
2019-03-05T11:39:55.521Z,52.47
2019-03-05T11:40:54.614Z,52.47
2019-03-05T11:41:54.899Z,52.57
2019-03-05T11:42:54.623Z,52.57
2019-03-05T11:43:54.587Z,52.57
2019-03-05T11:45:06.911Z,52.47
2019-03-05T11:45:55.585Z,52.47
2019-03-05T11:46:54.558Z,52.47
2019-03-05T11:47:54.622Z,52.47
2019-03-05T11:48:54.531Z,52.47
2019-03-05T11:49:54.520Z,52.37
2019-03-05T11:50:54.508Z,52.26
2019-03-05T11:51:54.499Z,52.26
2019-03-05T11:52:54.491Z,52.26
2019-03-05T11:53:54.512Z,52.26
2019-03-05T11:54:54.464Z,52.26
2019-03-05T11:55:54.453Z,52.26
2019-03-05T11:56:54.443Z,52.26
2019-03-05T11:57:54.435Z,52.26
2019-03-05T11:58:54.456Z,52.26
2019-03-05T11:59:54.415Z,52.26
2019-03-05T12:00:54.405Z,52.26
2019-03-05T12:01:54.391Z,52.26
2019-03-05T12:02:54.379Z,52.37
2019-03-05T12:03:54.371Z,52.26
2019-03-05T12:04:54.388Z,52.37
2019-03-05T12:05:54.350Z,52.47
2019-03-05T12:06:54.331Z,52.37
2019-03-05T12:07:54.326Z,52.37
2019-03-05T12:08:54.321Z,52.37
2019-03-05T12:09:54.299Z,52.37
2019-03-05T12:10:54.333Z,52.26
2019-03-05T12:11:54.287Z,52.26
2019-03-05T12:12:54.270Z,52.26
2019-03-05T12:13:54.261Z,52.26
2019-03-05T12:14:54.247Z,52.26
2019-03-05T12:15:54.275Z,52.26
2019-03-05T12:16:54.232Z,52.26
2019-03-05T12:17:54.214Z,52.26
2019-03-05T12:18:54.214Z,52.26
2019-03-05T12:19:54.191Z,52.06
2019-03-05T12:20:54.185Z,52.17
2019-03-05T12:21:54.197Z,52.06
2019-03-05T12:22:54.160Z,52.17
2019-03-05T12:23:54.165Z,52.06
2019-03-05T12:24:57.575Z,52.06
2019-03-05T12:25:55.133Z,51.97
2019-03-05T12:26:54.345Z,51.86
2019-03-05T12:27:54.114Z,51.86
2019-03-05T12:28:54.102Z,51.76
2019-03-05T12:29:54.087Z,51.76
2019-03-05T12:30:54.077Z,51.66
2019-03-05T12:31:54.066Z,51.66
2019-03-05T12:32:54.090Z,51.66
2019-03-05T12:33:54.071Z,51.66
2019-03-05T12:34:54.039Z,51.56
2019-03-05T12:35:54.023Z,51.56
2019-03-05T12:36:54.018Z,51.46
2019-03-05T12:37:54.001Z,51.46
2019-03-05T12:38:54.015Z,51.46
2019-03-05T12:39:53.989Z,51.46
2019-03-05T12:40:53.973Z,51.46
2019-03-05T12:41:53.961Z,51.46
2019-03-05T12:42:53.948Z,51.46
2019-03-05T12:43:53.954Z,51.46
2019-03-05T12:44:54.149Z,51.46
2019-03-05T12:45:53.915Z,51.46
2019-03-05T12:46:53.902Z,51.86
2019-03-05T12:47:53.901Z,51.76
2019-03-05T12:48:53.884Z,51.97
2019-03-05T12:49:53.873Z,52.17
2019-03-05T12:50:53.912Z,52.06
2019-03-05T12:51:53.851Z,52.17